Stations météo

Publicité
Valencia Airport, Espagne (2008284): Température de l'air & dewpoint: 18.02.2019 00:00:00 - 24.02.2019 00:00:00 (CET)Valencia Airport, Espagne (2008284): Vitesse du vent: 18.02.2019 00:00:00 - 24.02.2019 00:00:00 (CET)Valencia Airport, Espagne (2008284): Direction du vent: 18.02.2019 00:00:00 - 24.02.2019 00:00:00 (CET)Valencia Airport, Espagne (2008284): visibility: 18.02.2019 00:00:00 - 24.02.2019 00:00:00 (CET)
Date & Time tt [°C] td [°C] ff [km/h] ff [knt] dd vv [km]
24.02.2019 00:00:00 7,0 5,0 4 2 W 7
23.02.2019 23:00:00 8,0 5,0 4 2 W 6
23.02.2019 22:00:00 10,0 7,0 8 4 NW 6
23.02.2019 21:00:00 12,0 8,0 4 2 - 10
23.02.2019 20:00:00 14,0 9,0 5 3 E 10
23.02.2019 19:00:00 14,0 9,0 8 4 E 10
23.02.2019 18:00:00 16,0 9,0 11 6 E 10
23.02.2019 17:00:00 18,0 6,0 15 8 ENE 10
23.02.2019 16:00:00 19,0 4,0 18 10 E 10
23.02.2019 15:00:00 20,0 1,0 21 11 E 10
23.02.2019 14:00:00 21,0 0,0 16 9 E 10
23.02.2019 13:00:00 22,0 -1,0 5 3 E 10
23.02.2019 12:00:00 21,0 -1,0 2 1 - 10
23.02.2019 11:00:00 18,0 -1,0 4 2 - 10
23.02.2019 10:00:00 15,0 -2,0 9 5 W 10
23.02.2019 09:00:00 10,0 1,0 8 4 W 10
23.02.2019 08:00:00 5,0 -1,0 11 6 W 10
23.02.2019 07:00:00 6,0 -1,0 9 5 W 10
23.02.2019 06:00:00 7,0 -1,0 15 8 W 10
23.02.2019 05:00:00 6,0 0,0 11 6 W 10
23.02.2019 04:00:00 6,0 0,0 4 2 W 10
23.02.2019 03:00:00 7,0 0,0 8 4 W 10
23.02.2019 02:00:00 8,0 1,0 9 5 WNW 10
23.02.2019 01:00:00 10,0 1,0 4 2 - 10
23.02.2019 00:00:00 9,0 3,0 4 2 - 10
22.02.2019 23:00:00 11,0 3,0 5 3 WNW 10
22.02.2019 22:00:00 11,0 5,0 8 4 NW 10
22.02.2019 21:00:00 12,0 6,0 8 4 WNW 10
22.02.2019 20:00:00 14,0 6,0 5 3 NNW 10
22.02.2019 19:00:00 17,0 6,0 11 6 E 10
22.02.2019 18:00:00 19,0 6,0 11 6 ESE 10
22.02.2019 17:00:00 22,0 6,0 13 7 SE 10
22.02.2019 16:00:00 23,0 -3,0 13 7 SE 10
22.02.2019 15:00:00 23,0 1,0 11 6 SE 10
22.02.2019 14:00:00 22,0 1,0 9 5 SE 10
22.02.2019 13:00:00 22,0 1,0 5 3 SSW 10
22.02.2019 12:00:00 19,0 3,0 2 1 - 10
22.02.2019 11:00:00 15,0 2,0 5 3 SW 10
22.02.2019 10:00:00 11,0 5,0 4 2 - 10
22.02.2019 09:00:00 6,0 4,0 5 3 WNW 10
22.02.2019 08:00:00 3,0 2,0 5 3 NW 10
22.02.2019 07:00:00 3,0 2,0 5 3 WNW 10
22.02.2019 06:00:00 4,0 3,0 4 2 - 10
22.02.2019 05:00:00 4,0 3,0 8 4 W 10
22.02.2019 04:00:00 5,0 3,0 4 2 NW 10
22.02.2019 03:00:00 6,0 4,0 5 3 W 10
22.02.2019 02:00:00 6,0 4,0 5 3 WNW 10
22.02.2019 01:00:00 7,0 6,0 5 3 NW 10
22.02.2019 00:00:00 6,0 5,0 8 4 W 10
21.02.2019 23:00:00 8,0 6,0 5 3 NW 10
21.02.2019 22:00:00 8,0 6,0 5 3 WNW 10
21.02.2019 21:00:00 8,0 6,0 8 4 W 10
21.02.2019 20:00:00 12,0 8,0 5 3 SSE 10
21.02.2019 19:00:00 13,0 8,0 11 6 SE 10
21.02.2019 18:00:00 14,0 7,0 11 6 SE 10
21.02.2019 17:00:00 16,0 7,0 9 5 SE 10
21.02.2019 16:00:00 16,0 7,0 9 5 SE 10
21.02.2019 15:00:00 16,0 8,0 9 5 SE 10
21.02.2019 14:00:00 16,0 8,0 13 7 E 10
21.02.2019 13:00:00 15,0 6,0 5 3 - 10
21.02.2019 12:00:00 14,0 7,0 4 2 ESE 10
21.02.2019 11:00:00 12,0 6,0 5 3 WNW 10
21.02.2019 10:00:00 10,0 5,0 4 2 - 10
21.02.2019 09:00:00 6,0 5,0 4 2 W 10
21.02.2019 08:00:00 5,0 3,0 5 3 WSW 10
21.02.2019 07:00:00 5,0 4,0 9 5 WSW 7
21.02.2019 06:00:00 7,0 5,0 4 2 - 8
21.02.2019 05:00:00 8,0 6,0 5 3 W 8
21.02.2019 04:00:00 9,0 7,0 4 2 WSW 8
21.02.2019 03:00:00 9,0 7,0 5 3 WSW 8
21.02.2019 02:00:00 8,0 7,0 5 3 W 8
21.02.2019 01:00:00 8,0 7,0 5 3 W 10
21.02.2019 00:00:00 7,0 6,0 5 3 W 10
20.02.2019 23:00:00 7,0 6,0 5 3 WNW 10
20.02.2019 22:00:00 8,0 6,0 8 4 WNW 10
20.02.2019 21:00:00 12,0 9,0 4 2 - 10
20.02.2019 20:00:00 12,0 8,0 5 3 ENE 10
20.02.2019 19:00:00 13,0 8,0 9 5 E 10
20.02.2019 18:00:00 14,0 7,0 13 7 E 10
20.02.2019 17:00:00 15,0 6,0 15 8 E 10
20.02.2019 16:00:00 16,0 6,0 13 7 SE 10
20.02.2019 15:00:00 16,0 7,0 13 7 ESE 10
20.02.2019 14:00:00 16,0 5,0 8 4 - 10
20.02.2019 13:00:00 15,0 6,0 8 4 - 10
20.02.2019 12:00:00 14,0 6,0 4 2 - 10
20.02.2019 11:00:00 12,0 6,0 5 3 W 10
20.02.2019 10:00:00 8,0 5,0 5 3 W 10
20.02.2019 09:00:00 6,0 4,0 5 3 W 10
20.02.2019 08:00:00 4,0 3,0 11 6 W 10
20.02.2019 07:00:00 5,0 4,0 9 5 W 10
20.02.2019 06:00:00 5,0 4,0 8 4 W 10
20.02.2019 05:00:00 7,0 5,0 2 1 WNW 10
20.02.2019 04:00:00 6,0 4,0 8 4 WNW 10
20.02.2019 03:00:00 6,0 5,0 4 2 WNW 9
20.02.2019 02:00:00 5,0 4,0 4 2 W 9
20.02.2019 01:00:00 6,0 5,0 4 2 - 10
20.02.2019 00:00:00 7,0 5,0 4 2 - 10
19.02.2019 23:00:00 8,0 6,0 8 4 NW 10
19.02.2019 22:00:00 8,0 6,0 5 3 W 10
19.02.2019 21:00:00 10,0 7,0 5 3 NNW 10
19.02.2019 20:00:00 12,0 8,0 8 4 - 10
19.02.2019 19:00:00 13,0 7,0 9 5 ENE 10
19.02.2019 18:00:00 14,0 7,0 11 6 E 10
19.02.2019 17:00:00 15,0 7,0 11 6 E 10
19.02.2019 16:00:00 16,0 6,0 13 7 E 10
19.02.2019 15:00:00 16,0 6,0 15 8 E 10
19.02.2019 14:00:00 16,0 6,0 5 3 - 10
19.02.2019 13:00:00 16,0 5,0 4 2 SSW 10
19.02.2019 12:00:00 15,0 6,0 2 1 - 10
19.02.2019 11:00:00 12,0 5,0 4 2 - 10
19.02.2019 10:00:00 9,0 5,0 8 4 NW 10
19.02.2019 09:00:00 7,0 4,0 5 3 W 10
19.02.2019 08:00:00 5,0 4,0 8 4 NW 10
19.02.2019 07:00:00 5,0 4,0 9 5 WNW 10
19.02.2019 06:00:00 4,0 4,0 9 5 WNW 6
19.02.2019 05:00:00 5,0 4,0 5 3 WNW 5
19.02.2019 04:00:00 6,0 5,0 8 4 WNW 5
19.02.2019 03:00:00 6,0 5,0 5 3 W 5
19.02.2019 02:00:00 6,0 5,0 8 4 NW 6
19.02.2019 01:00:00 7,0 6,0 9 5 WNW 7
19.02.2019 00:00:00 7,0 6,0 5 3 WNW 8
18.02.2019 23:00:00 8,0 6,0 9 5 NW 10
18.02.2019 22:00:00 9,0 7,0 5 3 WNW 10
18.02.2019 21:00:00 12,0 8,0 2 1 - 10
18.02.2019 20:00:00 12,0 9,0 4 2 - 10
18.02.2019 19:00:00 12,0 9,0 9 5 SE 10
18.02.2019 18:00:00 14,0 9,0 13 7 SE 10
18.02.2019 17:00:00 15,0 9,0 13 7 E 10
18.02.2019 16:00:00 15,0 7,0 9 5 E 10
18.02.2019 15:00:00 15,0 7,0 11 6 ESE 10
18.02.2019 14:00:00 15,0 7,0 8 4 E 10
18.02.2019 13:00:00 14,0 8,0 9 5 E 10
18.02.2019 12:00:00 14,0 8,0 8 4 NE 10
18.02.2019 11:00:00 13,0 6,0 4 2 - 10
18.02.2019 10:00:00 10,0 6,0 9 5 NW 10
18.02.2019 09:00:00 8,0 6,0 8 4 WNW 10
18.02.2019 08:00:00 6,0 5,0 4 2 - 10
18.02.2019 07:00:00 5,0 4,0 8 4 W 10
18.02.2019 06:00:00 6,0 5,0 8 4 WNW 10
18.02.2019 05:00:00 7,0 6,0 5 3 WNW 10
18.02.2019 04:00:00 8,0 6,0 4 2 NW 10
18.02.2019 03:00:00 8,0 6,0 5 3 WNW 10
18.02.2019 02:00:00 9,0 7,0 0 0 N 10
18.02.2019 01:00:00 9,0 7,0 4 2 - 10
18.02.2019 00:00:00 9,0 7,0 5 3 WNW 10

tt = Température de l'air
td = dewpoint
ff = Vitesse du vent
dd = Direction du vent
vv = visibility

stations d'obs. à proximité